createdAt,value
2019-05-09T07:06:13.217Z,76.8
2019-05-09T07:22:54.574Z,75.6
2019-05-09T07:39:37.966Z,74.4
2019-05-09T07:56:18.623Z,73.6
2019-05-09T08:12:59.827Z,72.4
2019-05-09T08:19:40.768Z,70.8
2019-05-09T08:36:23.249Z,70.8
2019-05-09T08:53:08.166Z,69.6
2019-05-09T08:59:50.560Z,69.6
2019-05-09T09:09:49.637Z,66.8
2019-05-09T09:19:51.932Z,66.8
2019-05-09T09:33:17.482Z,66.4
2019-05-09T09:50:00.513Z,66.0
2019-05-09T10:03:22.256Z,64.8
2019-05-09T10:20:06.529Z,64.0
2019-05-09T10:36:51.997Z,62.4
2019-05-09T10:53:36.317Z,61.6
2019-05-09T11:10:27.784Z,60.4
2019-05-09T11:17:10.769Z,60.4
2019-05-09T11:27:08.502Z,61.2
2019-05-09T11:40:30.441Z,58.8
2019-05-09T11:57:15.782Z,58.8
2019-05-09T12:14:01.151Z,57.2
2019-05-09T12:20:43.232Z,58.0
2019-05-09T12:37:28.322Z,56.8
2019-05-09T12:50:52.751Z,55.6
2019-05-09T13:07:42.185Z,55.2
2019-05-09T13:24:25.011Z,54.0
2019-05-09T13:41:11.014Z,53.6
2019-05-09T13:57:59.253Z,53.6
2019-05-09T14:14:42.624Z,54.0
2019-05-09T14:24:48.354Z,54.8
2019-05-09T14:38:09.190Z,56.0
2019-05-09T14:54:53.363Z,56.4
2019-05-09T15:08:18.075Z,56.4
2019-05-09T15:25:01.779Z,55.6
2019-05-09T15:41:47.900Z,56.4
2019-05-09T15:58:30.837Z,56.4
2019-05-09T16:15:15.412Z,56.0
2019-05-09T16:25:18.952Z,56.0
2019-05-09T16:32:00.819Z,55.6
2019-05-09T16:38:46.595Z,54.8
2019-05-09T16:45:26.113Z,54.0
2019-05-09T16:55:31.379Z,52.8
2019-05-09T17:05:34.361Z,53.6
2019-05-09T17:12:18.628Z,54.4
2019-05-09T17:18:58.500Z,55.2
2019-05-09T17:35:43.356Z,56.0
2019-05-09T17:52:27.024Z,55.6
2019-05-09T18:09:11.666Z,56.8
2019-05-09T18:25:59.804Z,58.0
2019-05-09T18:42:38.369Z,58.0
2019-05-09T18:56:01.730Z,59.2
2019-05-09T19:12:44.047Z,60.4
2019-05-09T19:29:26.741Z,61.2
2019-05-09T19:46:09.029Z,62.0
2019-05-09T20:02:51.336Z,62.8
2019-05-09T20:19:35.191Z,64.0
2019-05-09T20:36:15.485Z,64.0
2019-05-09T20:53:08.946Z,65.2
2019-05-09T21:09:38.579Z,66.4
2019-05-09T21:26:20.084Z,67.6
2019-05-09T21:43:01.601Z,68.0
2019-05-09T21:59:42.935Z,67.2
2019-05-09T22:16:25.267Z,67.2
2019-05-09T22:33:05.411Z,67.6
2019-05-09T22:49:46.477Z,68.0
2019-05-09T23:06:27.441Z,68.4
2019-05-09T23:23:08.405Z,70.0
2019-05-09T23:39:49.186Z,70.8
2019-05-09T23:56:29.821Z,71.6
